sensor_id;sensor_type;location;lat;lon;timestamp;pressure;altitude;pressure_sealevel;temperature;humidity
37610;BME280;23457;51.966;8.230;2023-01-28T00:01:16;102180.63;;;2.31;82.29
37610;BME280;23457;51.966;8.230;2023-01-28T00:03:43;102188.19;;;2.41;82.88
37610;BME280;23457;51.966;8.230;2023-01-28T00:06:14;102181.63;;;2.33;81.82
37610;BME280;23457;51.966;8.230;2023-01-28T00:08:41;102183.53;;;2.47;81.20
37610;BME280;23457;51.966;8.230;2023-01-28T00:11:10;102185.44;;;2.27;81.22
37610;BME280;23457;51.966;8.230;2023-01-28T00:13:37;102195.47;;;2.00;81.25
37610;BME280;23457;51.966;8.230;2023-01-28T00:16:06;102191.13;;;2.11;81.94
37610;BME280;23457;51.966;8.230;2023-01-28T00:18:37;102200.59;;;2.00;80.42
37610;BME280;23457;51.966;8.230;2023-01-28T00:21:06;102193.91;;;2.14;80.39
37610;BME280;23457;51.966;8.230;2023-01-28T00:23:34;102194.13;;;2.05;79.52
37610;BME280;23457;51.966;8.230;2023-01-28T00:26:03;102193.13;;;2.15;77.96
37610;BME280;23457;51.966;8.230;2023-01-28T00:28:30;102183.44;;;2.11;79.02
37610;BME280;23457;51.966;8.230;2023-01-28T00:30:57;102179.06;;;1.98;80.26
37610;BME280;23457;51.966;8.230;2023-01-28T00:33:25;102178.84;;;2.07;80.06
37610;BME280;23457;51.966;8.230;2023-01-28T00:35:59;102188.53;;;1.88;80.07
37610;BME280;23457;51.966;8.230;2023-01-28T00:38:27;102183.84;;;2.05;80.15
37610;BME280;23457;51.966;8.230;2023-01-28T00:40:54;102191.56;;;2.17;78.55
37610;BME280;23457;51.966;8.230;2023-01-28T00:43:22;102196.13;;;2.21;78.86
37610;BME280;23457;51.966;8.230;2023-01-28T00:45:48;102201.38;;;2.11;79.46
37610;BME280;23457;51.966;8.230;2023-01-28T00:48:16;102197.56;;;2.06;80.34
37610;BME280;23457;51.966;8.230;2023-01-28T00:50:43;102196.03;;;2.08;80.81
37610;BME280;23457;51.966;8.230;2023-01-28T00:53:10;102198.81;;;1.99;80.31
37610;BME280;23457;51.966;8.230;2023-01-28T00:55:37;102188.31;;;2.20;80.34
37610;BME280;23457;51.966;8.230;2023-01-28T00:58:04;102194.47;;;2.10;80.80
37610;BME280;23457;51.966;8.230;2023-01-28T01:00:31;102190.00;;;2.07;81.18
37610;BME280;23457;51.966;8.230;2023-01-28T01:02:58;102193.81;;;2.01;81.96
37610;BME280;23457;51.966;8.230;2023-01-28T01:05:25;102199.13;;;2.15;80.54
37610;BME280;23457;51.966;8.230;2023-01-28T01:07:52;102208.97;;;2.09;82.81
37610;BME280;23457;51.966;8.230;2023-01-28T01:10:19;102194.94;;;2.28;81.51
37610;BME280;23457;51.966;8.230;2023-01-28T01:12:47;102197.13;;;2.35;79.94
37610;BME280;23457;51.966;8.230;2023-01-28T01:15:16;102192.91;;;2.35;80.37
37610;BME280;23457;51.966;8.230;2023-01-28T01:17:45;102194.56;;;2.35;79.88
37610;BME280;23457;51.966;8.230;2023-01-28T01:20:16;102190.88;;;2.31;81.20
37610;BME280;23457;51.966;8.230;2023-01-28T01:22:43;102191.66;;;2.19;81.89
37610;BME280;23457;51.966;8.230;2023-01-28T01:25:14;102187.97;;;2.03;81.11
37610;BME280;23457;51.966;8.230;2023-01-28T01:27:43;102190.66;;;1.93;80.77
37610;BME280;23457;51.966;8.230;2023-01-28T01:30:11;102187.31;;;2.06;80.66
37610;BME280;23457;51.966;8.230;2023-01-28T01:32:38;102190.66;;;1.93;82.97
37610;BME280;23457;51.966;8.230;2023-01-28T01:35:06;102195.13;;;1.96;82.91
37610;BME280;23457;51.966;8.230;2023-01-28T01:37:34;102208.06;;;2.09;81.47
37610;BME280;23457;51.966;8.230;2023-01-28T01:40:02;102201.38;;;1.88;83.07
37610;BME280;23457;51.966;8.230;2023-01-28T01:42:32;102198.09;;;1.78;82.07
37610;BME280;23457;51.966;8.230;2023-01-28T01:50:11;102199.47;;;1.97;81.87
37610;BME280;23457;51.966;8.230;2023-01-28T01:52:41;102196.69;;;2.05;81.48
37610;BME280;23457;51.966;8.230;2023-01-28T01:55:15;102201.38;;;2.11;81.60
37610;BME280;23457;51.966;8.230;2023-01-28T01:57:43;102204.38;;;2.17;81.18
37610;BME280;23457;51.966;8.230;2023-01-28T02:00:11;102201.25;;;1.98;81.30
37610;BME280;23457;51.966;8.230;2023-01-28T02:02:44;102207.16;;;1.97;81.61
37610;BME280;23457;51.966;8.230;2023-01-28T02:05:15;102205.84;;;2.02;81.52
37610;BME280;23457;51.966;8.230;2023-01-28T02:07:44;102204.06;;;2.12;80.03
37610;BME280;23457;51.966;8.230;2023-01-28T02:10:13;102206.94;;;1.94;81.24
37610;BME280;23457;51.966;8.230;2023-01-28T02:12:43;102212.84;;;2.16;80.88
37610;BME280;23457;51.966;8.230;2023-01-28T02:15:18;102213.72;;;1.93;81.17
37610;BME280;23457;51.966;8.230;2023-01-28T02:17:47;102217.53;;;1.98;79.89
37610;BME280;23457;51.966;8.230;2023-01-28T02:23:58;102216.13;;;2.25;79.24
37610;BME280;23457;51.966;8.230;2023-01-28T02:29:43;102220.56;;;2.28;80.32
37610;BME280;23457;51.966;8.230;2023-01-28T02:32:21;102219.44;;;2.12;80.13
37610;BME280;23457;51.966;8.230;2023-01-28T02:34:59;102217.78;;;2.25;80.75
37610;BME280;23457;51.966;8.230;2023-01-28T02:37:37;102216.66;;;2.21;81.42
37610;BME280;23457;51.966;8.230;2023-01-28T02:40:45;102211.88;;;2.26;81.21
37610;BME280;23457;51.966;8.230;2023-01-28T02:43:42;102215.66;;;2.19;79.64
37610;BME280;23457;51.966;8.230;2023-01-28T02:46:18;102218.56;;;2.24;79.36
37610;BME280;23457;51.966;8.230;2023-01-28T02:49:08;102209.63;;;2.30;79.03
37610;BME280;23457;51.966;8.230;2023-01-28T02:51:43;102221.91;;;2.11;79.38
37610;BME280;23457;51.966;8.230;2023-01-28T02:59:53;102215.53;;;2.06;80.13
37610;BME280;23457;51.966;8.230;2023-01-28T03:05:04;102208.31;;;2.12;81.58
37610;BME280;23457;51.966;8.230;2023-01-28T03:07:34;102201.16;;;2.08;81.39
37610;BME280;23457;51.966;8.230;2023-01-28T03:10:03;102209.63;;;2.07;81.92
37610;BME280;23457;51.966;8.230;2023-01-28T03:12:32;102198.94;;;2.12;81.31
37610;BME280;23457;51.966;8.230;2023-01-28T03:15:23;102203.59;;;2.18;81.05
37610;BME280;23457;51.966;8.230;2023-01-28T03:18:27;102195.34;;;1.99;82.63
37610;BME280;23457;51.966;8.230;2023-01-28T03:24:16;102197.81;;;1.97;80.05
37610;BME280;23457;51.966;8.230;2023-01-28T03:27:16;102194.22;;;2.07;79.13
37610;BME280;23457;51.966;8.230;2023-01-28T03:30:14;102194.47;;;2.10;78.84
37610;BME280;23457;51.966;8.230;2023-01-28T03:33:10;102198.69;;;1.86;79.29
37610;BME280;23457;51.966;8.230;2023-01-28T03:35:56;102198.47;;;2.06;79.48
37610;BME280;23457;51.966;8.230;2023-01-28T03:38:43;102200.38;;;2.09;79.09
37610;BME280;23457;51.966;8.230;2023-01-28T03:41:22;102208.72;;;1.95;77.95
37610;BME280;23457;51.966;8.230;2023-01-28T03:43:52;102207.50;;;2.01;78.32
37610;BME280;23457;51.966;8.230;2023-01-28T03:46:20;102200.25;;;2.07;78.68
37610;BME280;23457;51.966;8.230;2023-01-28T03:48:47;102210.09;;;2.01;78.52
37610;BME280;23457;51.966;8.230;2023-01-28T03:51:14;102210.50;;;1.84;79.83
37610;BME280;23457;51.966;8.230;2023-01-28T03:53:41;102209.31;;;2.02;79.11
37610;BME280;23457;51.966;8.230;2023-01-28T03:56:09;102212.97;;;2.06;78.39
37610;BME280;23457;51.966;8.230;2023-01-28T03:58:44;102212.19;;;2.07;78.45
37610;BME280;23457;51.966;8.230;2023-01-28T04:01:22;102206.16;;;2.06;78.48
37610;BME280;23457;51.966;8.230;2023-01-28T04:03:49;102213.94;;;1.85;79.05
37610;BME280;23457;51.966;8.230;2023-01-28T04:06:26;102210.84;;;2.00;77.40
37610;BME280;23457;51.966;8.230;2023-01-28T04:09:13;102201.38;;;2.11;76.78
37610;BME280;23457;51.966;8.230;2023-01-28T04:11:54;102210.50;;;1.96;77.74
37610;BME280;23457;51.966;8.230;2023-01-28T04:14:26;102221.91;;;2.11;77.84
37610;BME280;23457;51.966;8.230;2023-01-28T04:17:03;102215.22;;;2.13;77.58
37610;BME280;23457;51.966;8.230;2023-01-28T04:19:30;102220.41;;;2.03;78.08
37610;BME280;23457;51.966;8.230;2023-01-28T04:22:05;102226.03;;;2.09;78.44
37610;BME280;23457;51.966;8.230;2023-01-28T04:24:33;102226.09;;;1.87;78.45
37610;BME280;23457;51.966;8.230;2023-01-28T04:27:00;102230.25;;;1.97;78.49
37610;BME280;23457;51.966;8.230;2023-01-28T04:29:27;102225.34;;;2.00;78.50
37610;BME280;23457;51.966;8.230;2023-01-28T04:31:59;102227.19;;;1.79;78.94
37610;BME280;23457;51.966;8.230;2023-01-28T04:34:40;102227.13;;;1.89;79.02
37610;BME280;23457;51.966;8.230;2023-01-28T04:37:35;102235.00;;;1.80;78.06
37610;BME280;23457;51.966;8.230;2023-01-28T04:40:09;102239.44;;;1.71;77.30
37610;BME280;23457;51.966;8.230;2023-01-28T04:42:54;102236.78;;;1.82;77.67
37610;BME280;23457;51.966;8.230;2023-01-28T04:45:33;102233.44;;;1.83;78.71
37610;BME280;23457;51.966;8.230;2023-01-28T04:48:26;102231.88;;;1.85;79.35
37610;BME280;23457;51.966;8.230;2023-01-28T04:51:13;102231.00;;;1.84;79.41
37610;BME280;23457;51.966;8.230;2023-01-28T04:53:48;102226.22;;;1.89;79.06
37610;BME280;23457;51.966;8.230;2023-01-28T04:56:23;102232.00;;;1.86;79.70
37610;BME280;23457;51.966;8.230;2023-01-28T04:58:50;102239.25;;;1.92;78.98
37610;BME280;23457;51.966;8.230;2023-01-28T05:01:16;102237.69;;;1.94;79.63
37610;BME280;23457;51.966;8.230;2023-01-28T05:03:43;102233.59;;;1.96;79.28
37610;BME280;23457;51.966;8.230;2023-01-28T05:06:18;102231.81;;;2.06;79.04
37610;BME280;23457;51.966;8.230;2023-01-28T05:08:45;102229.09;;;1.82;80.19
37610;BME280;23457;51.966;8.230;2023-01-28T05:11:14;102225.34;;;1.88;80.46
37610;BME280;23457;51.966;8.230;2023-01-28T05:13:42;102224.69;;;2.02;79.14
37610;BME280;23457;51.966;8.230;2023-01-28T05:16:11;102224.22;;;1.96;79.27
37610;BME280;23457;51.966;8.230;2023-01-28T05:18:38;102216.50;;;1.73;80.46
37610;BME280;23457;51.966;8.230;2023-01-28T05:21:08;102223.44;;;1.86;78.31
37610;BME280;23457;51.966;8.230;2023-01-28T05:23:37;102212.44;;;1.65;77.35
37610;BME280;23457;51.966;8.230;2023-01-28T05:26:04;102225.44;;;1.90;76.96
37610;BME280;23457;51.966;8.230;2023-01-28T05:28:32;102233.47;;;1.94;76.93
37610;BME280;23457;51.966;8.230;2023-01-28T05:31:03;102242.81;;;1.94;76.88
37610;BME280;23457;51.966;8.230;2023-01-28T05:33:30;102237.25;;;1.88;78.22
37610;BME280;23457;51.966;8.230;2023-01-28T05:35:58;102241.66;;;1.78;79.90
37610;BME280;23457;51.966;8.230;2023-01-28T05:38:25;102242.75;;;1.59;79.29
37610;BME280;23457;51.966;8.230;2023-01-28T05:40:51;102245.72;;;1.87;78.87
37610;BME280;23457;51.966;8.230;2023-01-28T05:43:18;102245.22;;;1.69;79.87
37610;BME280;23457;51.966;8.230;2023-01-28T05:45:52;102248.59;;;1.79;79.50
37610;BME280;23457;51.966;8.230;2023-01-28T05:48:28;102242.00;;;1.71;80.18
37610;BME280;23457;51.966;8.230;2023-01-28T05:51:23;102240.13;;;1.80;79.39
37610;BME280;23457;51.966;8.230;2023-01-28T05:53:54;102245.19;;;1.57;79.62
37610;BME280;23457;51.966;8.230;2023-01-28T05:56:21;102245.50;;;1.50;79.49
37610;BME280;23457;51.966;8.230;2023-01-28T05:58:48;102242.25;;;1.53;77.89
37610;BME280;23457;51.966;8.230;2023-01-28T06:01:14;102247.13;;;1.71;76.78
37610;BME280;23457;51.966;8.230;2023-01-28T06:03:48;102239.09;;;1.78;77.77
37610;BME280;23457;51.966;8.230;2023-01-28T06:06:16;102241.38;;;1.86;76.38
37610;BME280;23457;51.966;8.230;2023-01-28T06:08:42;102234.13;;;1.92;76.01
37610;BME280;23457;51.966;8.230;2023-01-28T06:11:10;102227.00;;;1.88;77.63
37610;BME280;23457;51.966;8.230;2023-01-28T06:13:37;102235.25;;;1.95;77.79
37610;BME280;23457;51.966;8.230;2023-01-28T06:16:24;102236.50;;;2.00;76.43
37610;BME280;23457;51.966;8.230;2023-01-28T06:19:04;102235.25;;;1.95;76.47
37610;BME280;23457;51.966;8.230;2023-01-28T06:21:31;102240.16;;;1.92;77.93
37610;BME280;23457;51.966;8.230;2023-01-28T06:23:59;102240.03;;;1.91;77.81
37610;BME280;23457;51.966;8.230;2023-01-28T06:26:27;102243.59;;;1.93;77.65
37610;BME280;23457;51.966;8.230;2023-01-28T06:28:54;102244.38;;;1.92;77.37
37610;BME280;23457;51.966;8.230;2023-01-28T06:31:21;102244.38;;;1.92;76.85
37610;BME280;23457;51.966;8.230;2023-01-28T06:33:48;102244.16;;;1.89;76.74
37610;BME280;23457;51.966;8.230;2023-01-28T06:36:14;102237.22;;;1.76;78.53
37610;BME280;23457;51.966;8.230;2023-01-28T06:38:41;102242.06;;;1.95;77.73
37610;BME280;23457;51.966;8.230;2023-01-28T06:41:08;102237.16;;;1.98;76.87
37610;BME280;23457;51.966;8.230;2023-01-28T06:43:34;102251.19;;;1.91;76.51
37610;BME280;23457;51.966;8.230;2023-01-28T06:46:01;102242.13;;;1.73;77.00
37610;BME280;23457;51.966;8.230;2023-01-28T06:48:28;102239.69;;;1.86;77.48
37610;BME280;23457;51.966;8.230;2023-01-28T06:50:54;102246.81;;;1.90;77.54
37610;BME280;23457;51.966;8.230;2023-01-28T06:53:21;102246.16;;;1.93;77.42
37610;BME280;23457;51.966;8.230;2023-01-28T06:55:48;102238.94;;;1.87;78.85
37610;BME280;23457;51.966;8.230;2023-01-28T06:58:15;102227.53;;;1.84;80.61
37610;BME280;23457;51.966;8.230;2023-01-28T07:00:41;102228.31;;;1.83;80.20
37610;BME280;23457;51.966;8.230;2023-01-28T07:03:08;102242.06;;;1.95;79.02
37610;BME280;23457;51.966;8.230;2023-01-28T07:05:35;102238.34;;;1.79;78.85
37610;BME280;23457;51.966;8.230;2023-01-28T07:08:01;102251.44;;;1.61;77.78
37610;BME280;23457;51.966;8.230;2023-01-28T07:10:28;102249.06;;;1.52;79.11
37610;BME280;23457;51.966;8.230;2023-01-28T07:12:55;102256.00;;;1.65;78.56
37610;BME280;23457;51.966;8.230;2023-01-28T07:15:22;102258.41;;;1.73;77.42
37610;BME280;23457;51.966;8.230;2023-01-28T07:17:48;102256.16;;;1.78;75.51
37610;BME280;23457;51.966;8.230;2023-01-28T07:20:16;102242.31;;;1.64;75.76
37610;BME280;23457;51.966;8.230;2023-01-28T07:22:43;102246.34;;;1.72;78.20
37610;BME280;23457;51.966;8.230;2023-01-28T07:25:14;102258.16;;;1.70;76.53
37610;BME280;23457;51.966;8.230;2023-01-28T07:27:59;102255.91;;;1.63;78.07
37610;BME280;23457;51.966;8.230;2023-01-28T07:30:26;102247.94;;;1.82;76.52
37610;BME280;23457;51.966;8.230;2023-01-28T07:32:57;102255.97;;;1.87;75.27
37610;BME280;23457;51.966;8.230;2023-01-28T07:35:24;102267.09;;;1.75;74.43
37610;BME280;23457;51.966;8.230;2023-01-28T07:37:53;102254.28;;;1.75;75.30
37610;BME280;23457;51.966;8.230;2023-01-28T07:40:20;102259.81;;;1.70;75.30
37610;BME280;23457;51.966;8.230;2023-01-28T07:42:48;102265.81;;;1.59;76.13
37610;BME280;23457;51.966;8.230;2023-01-28T07:45:18;102269.16;;;1.36;77.07
37610;BME280;23457;51.966;8.230;2023-01-28T07:47:52;102258.03;;;1.35;77.40
37610;BME280;23457;51.966;8.230;2023-01-28T07:50:19;102257.66;;;1.31;76.72
37610;BME280;23457;51.966;8.230;2023-01-28T07:52:45;102251.66;;;1.30;77.39
37610;BME280;23457;51.966;8.230;2023-01-28T07:55:12;102262.50;;;1.38;78.55
37610;BME280;23457;51.966;8.230;2023-01-28T07:57:54;102262.84;;;1.64;76.85
37610;BME280;23457;51.966;8.230;2023-01-28T08:00:23;102264.59;;;1.65;76.82
37610;BME280;23457;51.966;8.230;2023-01-28T08:02:55;102283.09;;;1.61;76.81
37610;BME280;23457;51.966;8.230;2023-01-28T08:05:22;102275.28;;;1.60;77.78
37610;BME280;23457;51.966;8.230;2023-01-28T08:07:50;102280.09;;;1.67;76.88
37610;BME280;23457;51.966;8.230;2023-01-28T08:10:17;102280.84;;;1.66;77.75
37610;BME280;23457;51.966;8.230;2023-01-28T08:12:55;102298.00;;;1.01;80.30
37610;BME280;23457;51.966;8.230;2023-01-28T08:15:22;102303.41;;;1.48;78.49
37610;BME280;23457;51.966;8.230;2023-01-28T08:17:49;102300.25;;;1.62;74.87
37610;BME280;23457;51.966;8.230;2023-01-28T08:20:16;102304.28;;;1.70;74.22
37610;BME280;23457;51.966;8.230;2023-01-28T08:22:43;102305.44;;;1.74;75.74
37610;BME280;23457;51.966;8.230;2023-01-28T08:25:09;102304.53;;;1.73;76.02
37610;BME280;23457;51.966;8.230;2023-01-28T08:27:37;102304.03;;;1.67;76.70
37610;BME280;23457;51.966;8.230;2023-01-28T08:30:04;102312.13;;;1.50;77.30
37610;BME280;23457;51.966;8.230;2023-01-28T08:32:31;102315.94;;;1.33;78.83
37610;BME280;23457;51.966;8.230;2023-01-28T08:34:58;102320.75;;;1.40;79.14
37610;BME280;23457;51.966;8.230;2023-01-28T08:37:24;102325.81;;;1.29;80.09
37610;BME280;23457;51.966;8.230;2023-01-28T08:39:51;102331.13;;;1.42;79.68
37610;BME280;23457;51.966;8.230;2023-01-28T08:42:18;102339.56;;;1.41;79.66
37610;BME280;23457;51.966;8.230;2023-01-28T08:44:45;102335.69;;;1.68;78.43
37610;BME280;23457;51.966;8.230;2023-01-28T08:47:13;102344.78;;;1.74;79.10
37610;BME280;23457;51.966;8.230;2023-01-28T08:49:40;102346.91;;;1.80;76.76
37610;BME280;23457;51.966;8.230;2023-01-28T08:52:06;102354.41;;;1.89;75.66
37610;BME280;23457;51.966;8.230;2023-01-28T08:54:33;102354.00;;;1.72;75.68
37610;BME280;23457;51.966;8.230;2023-01-28T08:57:02;102356.41;;;1.59;77.31
37610;BME280;23457;51.966;8.230;2023-01-28T08:59:28;102357.28;;;1.60;76.90
37610;BME280;23457;51.966;8.230;2023-01-28T09:01:55;102364.16;;;1.49;76.54
37610;BME280;23457;51.966;8.230;2023-01-28T09:04:22;102370.81;;;1.47;73.89
37610;BME280;23457;51.966;8.230;2023-01-28T09:06:48;102381.69;;;1.23;75.12
37610;BME280;23457;51.966;8.230;2023-01-28T09:09:15;102379.84;;;1.64;76.41
37610;BME280;23457;51.966;8.230;2023-01-28T09:11:42;102376.94;;;1.71;76.18
37610;BME280;23457;51.966;8.230;2023-01-28T09:14:08;102375.09;;;1.36;75.96
37610;BME280;23457;51.966;8.230;2023-01-28T09:16:35;102388.03;;;1.28;78.46
37610;BME280;23457;51.966;8.230;2023-01-28T09:19:01;102398.28;;;1.38;77.61
37610;BME280;23457;51.966;8.230;2023-01-28T09:21:28;102391.38;;;1.27;76.62
37610;BME280;23457;51.966;8.230;2023-01-28T09:23:55;102401.41;;;1.24;77.08
37610;BME280;23457;51.966;8.230;2023-01-28T09:26:22;102396.75;;;1.30;78.15
37610;BME280;23457;51.966;8.230;2023-01-28T09:28:48;102405.97;;;1.38;76.52
37610;BME280;23457;51.966;8.230;2023-01-28T09:31:15;102393.97;;;1.17;77.69
37610;BME280;23457;51.966;8.230;2023-01-28T09:33:42;102391.88;;;1.33;77.58
37610;BME280;23457;51.966;8.230;2023-01-28T09:36:10;102391.06;;;1.44;76.68
37610;BME280;23457;51.966;8.230;2023-01-28T09:38:36;102386.19;;;1.69;75.44
37610;BME280;23457;51.966;8.230;2023-01-28T09:41:18;102397.59;;;1.72;74.38
37610;BME280;23457;51.966;8.230;2023-01-28T09:44:05;102406.03;;;1.50;77.27
37610;BME280;23457;51.966;8.230;2023-01-28T09:46:36;102404.84;;;1.56;75.09
37610;BME280;23457;51.966;8.230;2023-01-28T09:49:31;102404.56;;;1.63;74.01
37610;BME280;23457;51.966;8.230;2023-01-28T09:51:59;102407.66;;;1.59;75.72
37610;BME280;23457;51.966;8.230;2023-01-28T09:57:06;102422.38;;;1.30;75.29
37610;BME280;23457;51.966;8.230;2023-01-28T09:59:35;102410.00;;;1.46;74.77
37610;BME280;23457;51.966;8.230;2023-01-28T10:02:27;102402.88;;;1.86;73.95
37610;BME280;23457;51.966;8.230;2023-01-28T10:05:19;102412.56;;;1.46;74.14
37610;BME280;23457;51.966;8.230;2023-01-28T10:08:21;102403.28;;;1.58;75.21
37610;BME280;23457;51.966;8.230;2023-01-28T10:13:42;102390.53;;;1.48;75.84
37610;BME280;23457;51.966;8.230;2023-01-28T10:19:09;102403.28;;;1.36;74.85
37610;BME280;23457;51.966;8.230;2023-01-28T10:21:49;102393.56;;;1.54;74.64
37610;BME280;23457;51.966;8.230;2023-01-28T10:24:35;102384.09;;;1.53;73.81
37610;BME280;23457;51.966;8.230;2023-01-28T10:27:25;102392.47;;;1.51;73.81
37610;BME280;23457;51.966;8.230;2023-01-28T10:29:53;102393.34;;;1.51;73.82
37610;BME280;23457;51.966;8.230;2023-01-28T10:32:28;102389.13;;;1.73;72.89
37610;BME280;23457;51.966;8.230;2023-01-28T10:34:56;102383.09;;;1.51;74.29
37610;BME280;23457;51.966;8.230;2023-01-28T10:37:32;102384.28;;;1.44;75.35
37610;BME280;23457;51.966;8.230;2023-01-28T10:40:00;102395.53;;;1.68;74.46
37610;BME280;23457;51.966;8.230;2023-01-28T10:42:33;102400.50;;;1.77;75.52
37610;BME280;23457;51.966;8.230;2023-01-28T10:45:06;102411.69;;;1.67;74.05
37610;BME280;23457;51.966;8.230;2023-01-28T10:47:45;102409.25;;;1.47;74.55
37610;BME280;23457;51.966;8.230;2023-01-28T10:50:16;102406.25;;;1.53;74.92
37610;BME280;23457;51.966;8.230;2023-01-28T10:53:05;102406.88;;;1.60;74.92
37610;BME280;23457;51.966;8.230;2023-01-28T10:58:19;102411.31;;;1.41;77.09
37610;BME280;23457;51.966;8.230;2023-01-28T11:00:52;102405.47;;;1.54;76.53
37610;BME280;23457;51.966;8.230;2023-01-28T11:03:20;102406.94;;;1.50;76.08
37610;BME280;23457;51.966;8.230;2023-01-28T11:05:54;102414.75;;;1.41;75.53
37610;BME280;23457;51.966;8.230;2023-01-28T11:08:23;102419.53;;;1.37;75.06
37610;BME280;23457;51.966;8.230;2023-01-28T11:10:51;102413.03;;;1.62;74.52
37610;BME280;23457;51.966;8.230;2023-01-28T11:13:21;102422.31;;;1.50;73.98
37610;BME280;23457;51.966;8.230;2023-01-28T11:18:30;102404.31;;;1.60;74.84
37610;BME280;23457;51.966;8.230;2023-01-28T11:21:03;102387.59;;;1.65;75.01
37610;BME280;23457;51.966;8.230;2023-01-28T11:23:35;102385.47;;;1.82;73.79
37610;BME280;23457;51.966;8.230;2023-01-28T11:26:05;102386.66;;;1.97;72.74
37610;BME280;23457;51.966;8.230;2023-01-28T11:28:34;102393.25;;;2.05;72.38
37610;BME280;23457;51.966;8.230;2023-01-28T11:31:05;102395.84;;;1.61;72.11
37610;BME280;23457;51.966;8.230;2023-01-28T11:33:36;102392.03;;;1.56;74.05
37610;BME280;23457;51.966;8.230;2023-01-28T11:36:06;102393.97;;;1.92;72.46
37610;BME280;23457;51.966;8.230;2023-01-28T11:38:33;102377.81;;;2.15;73.53
37610;BME280;23457;51.966;8.230;2023-01-28T11:41:00;102374.25;;;2.13;70.89
37610;BME280;23457;51.966;8.230;2023-01-28T11:43:29;102382.50;;;2.21;70.03
37610;BME280;23457;51.966;8.230;2023-01-28T11:49:02;102360.47;;;2.58;74.10
37610;BME280;23457;51.966;8.230;2023-01-28T11:51:52;102360.06;;;2.63;71.95
37610;BME280;23457;51.966;8.230;2023-01-28T12:08:08;102347.19;;;3.21;69.77
37610;BME280;23457;51.966;8.230;2023-01-28T12:13:22;102332.34;;;2.47;71.72
37610;BME280;23457;51.966;8.230;2023-01-28T12:16:13;102333.72;;;2.66;68.89
37610;BME280;23457;51.966;8.230;2023-01-28T12:27:33;102266.88;;;3.49;68.68
37610;BME280;23457;51.966;8.230;2023-01-28T12:41:41;102227.09;;;4.20;66.74
37610;BME280;23457;51.966;8.230;2023-01-28T12:44:14;102232.81;;;3.89;65.49
37610;BME280;23457;51.966;8.230;2023-01-28T12:46:51;102223.13;;;4.12;66.56
37610;BME280;23457;51.966;8.230;2023-01-28T12:49:34;102226.94;;;4.30;64.63
37610;BME280;23457;51.966;8.230;2023-01-28T12:52:33;102244.63;;;4.39;64.05
37610;BME280;23457;51.966;8.230;2023-01-28T12:55:15;102259.81;;;3.96;60.17
37610;BME280;23457;51.966;8.230;2023-01-28T12:57:44;102254.13;;;4.26;65.29
37610;BME280;23457;51.966;8.230;2023-01-28T13:03:25;102234.81;;;4.73;63.79
37610;BME280;23457;51.966;8.230;2023-01-28T13:06:00;102219.06;;;5.09;62.81
37610;BME280;23457;51.966;8.230;2023-01-28T13:08:28;102212.22;;;5.37;62.82
37610;BME280;23457;51.966;8.230;2023-01-28T13:11:00;102222.72;;;5.68;60.02
37610;BME280;23457;51.966;8.230;2023-01-28T13:13:33;102226.63;;;5.34;59.99
37610;BME280;23457;51.966;8.230;2023-01-28T13:16:02;102241.56;;;5.12;59.98
37610;BME280;23457;51.966;8.230;2023-01-28T13:21:08;102245.09;;;4.73;62.43
37610;BME280;23457;51.966;8.230;2023-01-28T13:23:43;102261.75;;;4.91;61.57
37610;BME280;23457;51.966;8.230;2023-01-28T13:28:51;102280.78;;;4.66;58.11
37610;BME280;23457;51.966;8.230;2023-01-28T13:31:20;102291.19;;;3.90;62.25
37610;BME280;23457;51.966;8.230;2023-01-28T13:34:08;102284.56;;;2.96;64.20
37610;BME280;23457;51.966;8.230;2023-01-28T13:36:42;102279.47;;;3.57;66.71
37610;BME280;23457;51.966;8.230;2023-01-28T13:42:25;102294.97;;;4.09;62.23
37610;BME280;23457;51.966;8.230;2023-01-28T13:44:28;102289.97;;;3.85;61.73
37610;BME280;23457;51.966;8.230;2023-01-28T13:50:28;102293.88;;;3.31;66.72
37610;BME280;23457;51.966;8.230;2023-01-28T13:52:28;102298.81;;;3.28;68.06
37610;BME280;23457;51.966;8.230;2023-01-28T13:58:01;102291.34;;;3.07;70.56
37610;BME280;23457;51.966;8.230;2023-01-28T14:19:47;102203.44;;;4.12;65.23
37610;BME280;23457;51.966;8.230;2023-01-28T14:22:19;102194.03;;;4.39;63.21
37610;BME280;23457;51.966;8.230;2023-01-28T14:24:46;102190.28;;;4.34;61.33
37610;BME280;23457;51.966;8.230;2023-01-28T14:27:21;102191.47;;;4.26;62.13
37610;BME280;23457;51.966;8.230;2023-01-28T14:32:46;102227.78;;;3.91;63.15
37610;BME280;23457;51.966;8.230;2023-01-28T14:35:30;102229.81;;;3.83;64.18
37610;BME280;23457;51.966;8.230;2023-01-28T14:37:59;102243.09;;;3.89;64.47
37610;BME280;23457;51.966;8.230;2023-01-28T14:40:32;102251.59;;;3.88;63.68
37610;BME280;23457;51.966;8.230;2023-01-28T14:43:05;102253.69;;;3.69;63.96
37610;BME280;23457;51.966;8.230;2023-01-28T14:51:29;102249.66;;;3.23;66.36
37610;BME280;23457;51.966;8.230;2023-01-28T14:54:14;102271.09;;;3.23;67.16
37610;BME280;23457;51.966;8.230;2023-01-28T14:59:45;102272.00;;;2.76;68.63
37610;BME280;23457;51.966;8.230;2023-01-28T15:02:24;102266.69;;;3.09;68.82
37610;BME280;23457;51.966;8.230;2023-01-28T15:04:52;102255.41;;;2.96;69.07
37610;BME280;23457;51.966;8.230;2023-01-28T15:07:23;102261.53;;;3.09;67.86
37610;BME280;23457;51.966;8.230;2023-01-28T15:12:28;102265.63;;;3.19;67.57
37610;BME280;23457;51.966;8.230;2023-01-28T15:14:55;102256.09;;;3.30;65.91
37610;BME280;23457;51.966;8.230;2023-01-28T15:17:25;102250.28;;;3.32;65.98
37610;BME280;23457;51.966;8.230;2023-01-28T15:19:54;102269.59;;;3.02;67.18
37610;BME280;23457;51.966;8.230;2023-01-28T15:22:26;102259.41;;;3.15;68.33
37610;BME280;23457;51.966;8.230;2023-01-28T15:24:54;102269.31;;;3.22;68.13
37610;BME280;23457;51.966;8.230;2023-01-28T15:27:30;102278.53;;;2.96;68.88
37610;BME280;23457;51.966;8.230;2023-01-28T15:29:58;102283.81;;;2.85;69.63
37610;BME280;23457;51.966;8.230;2023-01-28T15:32:29;102276.09;;;2.85;70.21